sensor_id;sensor_type;location;lat;lon;timestamp;pressure;altitude;pressure_sealevel;temperature;humidity
21290;BME280;10804;48.988;2.408;2024-02-14T00:00:04;101068.56;;;11.56;70.10
21290;BME280;10804;48.988;2.408;2024-02-14T00:02:33;101070.31;;;11.57;70.04
21290;BME280;10804;48.988;2.408;2024-02-14T00:05:03;101064.22;;;11.56;70.01
21290;BME280;10804;48.988;2.408;2024-02-14T00:07:31;101074.66;;;11.56;70.06
21290;BME280;10804;48.988;2.408;2024-02-14T00:09:59;101072.91;;;11.57;70.11
21290;BME280;10804;48.988;2.408;2024-02-14T00:12:26;101076.41;;;11.57;70.15
21290;BME280;10804;48.988;2.408;2024-02-14T00:14:54;101076.41;;;11.57;70.14
21290;BME280;10804;48.988;2.408;2024-02-14T00:17:21;101082.50;;;11.58;69.97
21290;BME280;10804;48.988;2.408;2024-02-14T00:19:48;101078.13;;;11.58;70.05
21290;BME280;10804;48.988;2.408;2024-02-14T00:22:17;101071.19;;;11.57;69.92
21290;BME280;10804;48.988;2.408;2024-02-14T00:24:44;101076.41;;;11.57;70.00
21290;BME280;10804;48.988;2.408;2024-02-14T00:27:12;101073.78;;;11.59;70.11
21290;BME280;10804;48.988;2.408;2024-02-14T00:29:40;101067.69;;;11.58;69.97
21290;BME280;10804;48.988;2.408;2024-02-14T00:32:10;101079.91;;;11.58;69.94
21290;BME280;10804;48.988;2.408;2024-02-14T00:34:43;101088.56;;;11.58;70.17
21290;BME280;10804;48.988;2.408;2024-02-14T00:37:11;101094.66;;;11.59;70.17
21290;BME280;10804;48.988;2.408;2024-02-14T00:39:40;101103.34;;;11.59;70.01
21290;BME280;10804;48.988;2.408;2024-02-14T00:42:08;101098.13;;;11.59;69.96
21290;BME280;10804;48.988;2.408;2024-02-14T00:44:35;101098.13;;;11.59;69.95
21290;BME280;10804;48.988;2.408;2024-02-14T00:47:03;101102.47;;;11.61;69.95
21290;BME280;10804;48.988;2.408;2024-02-14T00:49:34;101099.91;;;11.57;70.07
21290;BME280;10804;48.988;2.408;2024-02-14T00:52:02;101097.25;;;11.61;69.88
21290;BME280;10804;48.988;2.408;2024-02-14T00:54:29;101094.63;;;11.61;69.97
21290;BME280;10804;48.988;2.408;2024-02-14T00:56:58;101098.13;;;11.59;70.16
21290;BME280;10804;48.988;2.408;2024-02-14T00:59:25;101101.59;;;11.60;70.16
21290;BME280;10804;48.988;2.408;2024-02-14T01:01:53;101093.75;;;11.62;70.12
21290;BME280;10804;48.988;2.408;2024-02-14T01:04:20;101097.25;;;11.61;70.10
21290;BME280;10804;48.988;2.408;2024-02-14T01:06:48;101098.13;;;11.59;70.08
21290;BME280;10804;48.988;2.408;2024-02-14T01:09:18;101096.34;;;11.62;70.05
21290;BME280;10804;48.988;2.408;2024-02-14T01:11:45;101096.34;;;11.62;70.16
21290;BME280;10804;48.988;2.408;2024-02-14T01:14:14;101100.69;;;11.63;69.92
21290;BME280;10804;48.988;2.408;2024-02-14T01:16:42;101088.53;;;11.60;70.07
21290;BME280;10804;48.988;2.408;2024-02-14T01:19:10;101085.00;;;11.63;70.00
21290;BME280;10804;48.988;2.408;2024-02-14T01:21:37;101092.81;;;11.64;70.17
21290;BME280;10804;48.988;2.408;2024-02-14T01:24:05;101096.28;;;11.63;70.10
21290;BME280;10804;48.988;2.408;2024-02-14T01:26:34;101092.84;;;11.63;70.18
21290;BME280;10804;48.988;2.408;2024-02-14T01:29:01;101098.88;;;11.64;70.12
21290;BME280;10804;48.988;2.408;2024-02-14T01:31:30;101104.09;;;11.64;70.18
21290;BME280;10804;48.988;2.408;2024-02-14T01:33:57;101105.00;;;11.63;70.00
21290;BME280;10804;48.988;2.408;2024-02-14T01:36:25;101106.75;;;11.63;70.08
21290;BME280;10804;48.988;2.408;2024-02-14T01:38:52;101105.81;;;11.65;70.05
21290;BME280;10804;48.988;2.408;2024-02-14T01:41:19;101111.03;;;11.65;69.98
21290;BME280;10804;48.988;2.408;2024-02-14T01:43:47;101118.03;;;11.65;69.98
21290;BME280;10804;48.988;2.408;2024-02-14T01:46:14;101122.38;;;11.64;70.21
21290;BME280;10804;48.988;2.408;2024-02-14T01:48:53;101125.88;;;11.65;70.00
21290;BME280;10804;48.988;2.408;2024-02-14T01:51:23;101124.09;;;11.65;69.97
21290;BME280;10804;48.988;2.408;2024-02-14T01:53:52;101118.06;;;11.63;70.17
21290;BME280;10804;48.988;2.408;2024-02-14T01:56:21;101120.69;;;11.63;70.00
21290;BME280;10804;48.988;2.408;2024-02-14T01:58:48;101121.50;;;11.65;70.03
21290;BME280;10804;48.988;2.408;2024-02-14T02:01:16;101112.75;;;11.66;70.00
21290;BME280;10804;48.988;2.408;2024-02-14T02:03:45;101126.72;;;11.65;70.32
21290;BME280;10804;48.988;2.408;2024-02-14T02:06:13;101132.75;;;11.67;70.04
21290;BME280;10804;48.988;2.408;2024-02-14T02:08:42;101126.66;;;11.68;70.05
21290;BME280;10804;48.988;2.408;2024-02-14T02:11:10;101119.69;;;11.67;70.09
21290;BME280;10804;48.988;2.408;2024-02-14T02:13:57;101119.69;;;11.67;69.89
21290;BME280;10804;48.988;2.408;2024-02-14T02:16:44;101117.09;;;11.67;70.05
21290;BME280;10804;48.988;2.408;2024-02-14T02:19:32;101117.94;;;11.68;69.90
21290;BME280;10804;48.988;2.408;2024-02-14T02:22:21;101128.41;;;11.68;70.06
21290;BME280;10804;48.988;2.408;2024-02-14T02:25:10;101127.50;;;11.69;70.11
21290;BME280;10804;48.988;2.408;2024-02-14T02:27:58;101121.44;;;11.68;70.17
21290;BME280;10804;48.988;2.408;2024-02-14T02:30:30;101117.09;;;11.67;70.12
21290;BME280;10804;48.988;2.408;2024-02-14T02:32:57;101134.44;;;11.70;70.03
21290;BME280;10804;48.988;2.408;2024-02-14T02:35:26;101124.88;;;11.70;70.23
21290;BME280;10804;48.988;2.408;2024-02-14T02:38:13;101124.88;;;11.69;70.22
21290;BME280;10804;48.988;2.408;2024-02-14T02:41:02;101124.00;;;11.70;70.15
21290;BME280;10804;48.988;2.408;2024-02-14T02:43:52;101121.38;;;11.70;70.30
21290;BME280;10804;48.988;2.408;2024-02-14T02:46:49;101114.41;;;11.70;70.18
21290;BME280;10804;48.988;2.408;2024-02-14T02:49:42;101123.16;;;11.69;69.95
21290;BME280;10804;48.988;2.408;2024-02-14T02:52:26;101121.38;;;11.70;70.11
21290;BME280;10804;48.988;2.408;2024-02-14T02:55:13;101119.63;;;11.70;70.28
21290;BME280;10804;48.988;2.408;2024-02-14T02:57:48;101125.69;;;11.72;70.00
21290;BME280;10804;48.988;2.408;2024-02-14T03:00:16;101128.28;;;11.72;70.02
21290;BME280;10804;48.988;2.408;2024-02-14T03:02:50;101123.06;;;11.72;69.91
21290;BME280;10804;48.988;2.408;2024-02-14T03:05:38;101127.44;;;11.72;70.20
21290;BME280;10804;48.988;2.408;2024-02-14T03:08:20;101131.81;;;11.71;70.04
21290;BME280;10804;48.988;2.408;2024-02-14T03:11:11;101130.94;;;11.71;70.22
21290;BME280;10804;48.988;2.408;2024-02-14T03:13:59;101123.97;;;11.71;69.97
21290;BME280;10804;48.988;2.408;2024-02-14T03:16:47;101124.06;;;11.68;70.13
21290;BME280;10804;48.988;2.408;2024-02-14T03:19:15;101134.41;;;11.71;69.98
21290;BME280;10804;48.988;2.408;2024-02-14T03:21:42;101138.72;;;11.74;69.94
21290;BME280;10804;48.988;2.408;2024-02-14T03:24:12;101128.28;;;11.72;69.98
21290;BME280;10804;48.988;2.408;2024-02-14T03:26:41;101136.13;;;11.72;69.95
21290;BME280;10804;48.988;2.408;2024-02-14T03:29:09;101139.63;;;11.73;70.14
21290;BME280;10804;48.988;2.408;2024-02-14T03:31:37;101136.13;;;11.72;70.08
21290;BME280;10804;48.988;2.408;2024-02-14T03:34:04;101135.22;;;11.73;70.00
21290;BME280;10804;48.988;2.408;2024-02-14T03:36:32;101129.16;;;11.73;70.04
21290;BME280;10804;48.988;2.408;2024-02-14T03:39:00;101130.00;;;11.73;70.09
21290;BME280;10804;48.988;2.408;2024-02-14T03:41:30;101139.63;;;11.73;70.16
21290;BME280;10804;48.988;2.408;2024-02-14T03:43:57;101125.66;;;11.74;70.17
21290;BME280;10804;48.988;2.408;2024-02-14T03:46:28;101129.09;;;11.74;70.10
21290;BME280;10804;48.988;2.408;2024-02-14T03:48:56;101120.44;;;11.74;70.23
21290;BME280;10804;48.988;2.408;2024-02-14T03:51:23;101120.41;;;11.75;70.00
21290;BME280;10804;48.988;2.408;2024-02-14T03:53:51;101115.19;;;11.74;70.07
21290;BME280;10804;48.988;2.408;2024-02-14T03:56:18;101121.28;;;11.74;69.86
21290;BME280;10804;48.988;2.408;2024-02-14T03:58:45;101121.25;;;11.76;69.88
21290;BME280;10804;48.988;2.408;2024-02-14T04:01:13;101121.31;;;11.73;70.12
21290;BME280;10804;48.988;2.408;2024-02-14T04:03:43;101127.38;;;11.75;69.94
21290;BME280;10804;48.988;2.408;2024-02-14T04:06:10;101123.00;;;11.75;70.12
21290;BME280;10804;48.988;2.408;2024-02-14T04:08:37;101135.19;;;11.75;70.01
21290;BME280;10804;48.988;2.408;2024-02-14T04:11:05;101128.25;;;11.75;69.91
21290;BME280;10804;48.988;2.408;2024-02-14T04:13:32;101129.97;;;11.75;70.11
21290;BME280;10804;48.988;2.408;2024-02-14T04:15:59;101136.06;;;11.75;69.83
21290;BME280;10804;48.988;2.408;2024-02-14T04:18:35;101140.41;;;11.76;69.92
21290;BME280;10804;48.988;2.408;2024-02-14T04:21:07;101136.06;;;11.75;70.13
21290;BME280;10804;48.988;2.408;2024-02-14T04:23:34;101140.41;;;11.76;70.06
21290;BME280;10804;48.988;2.408;2024-02-14T04:26:02;101135.19;;;11.76;70.10
21290;BME280;10804;48.988;2.408;2024-02-14T04:28:30;101130.84;;;11.75;70.09
21290;BME280;10804;48.988;2.408;2024-02-14T04:30:57;101136.03;;;11.77;69.90
21290;BME280;10804;48.988;2.408;2024-02-14T04:33:27;101133.41;;;11.77;69.95
21290;BME280;10804;48.988;2.408;2024-02-14T04:35:54;101131.66;;;11.77;70.13
21290;BME280;10804;48.988;2.408;2024-02-14T04:38:23;101130.78;;;11.77;70.10
21290;BME280;10804;48.988;2.408;2024-02-14T04:40:50;101137.72;;;11.78;69.95
21290;BME280;10804;48.988;2.408;2024-02-14T04:43:18;101136.88;;;11.77;69.99
21290;BME280;10804;48.988;2.408;2024-02-14T04:45:45;101139.50;;;11.77;70.14
21290;BME280;10804;48.988;2.408;2024-02-14T04:48:15;101139.50;;;11.77;70.19
21290;BME280;10804;48.988;2.408;2024-02-14T04:50:42;101131.66;;;11.77;70.16
21290;BME280;10804;48.988;2.408;2024-02-14T04:53:09;101137.72;;;11.78;70.08
21290;BME280;10804;48.988;2.408;2024-02-14T04:55:38;101132.47;;;11.79;69.99
21290;BME280;10804;48.988;2.408;2024-02-14T04:58:05;101129.88;;;11.79;70.03
21290;BME280;10804;48.988;2.408;2024-02-14T05:00:32;101135.09;;;11.79;69.95
21290;BME280;10804;48.988;2.408;2024-02-14T05:03:00;101131.59;;;11.80;70.09
21290;BME280;10804;48.988;2.408;2024-02-14T05:05:29;101130.75;;;11.80;69.92
21290;BME280;10804;48.988;2.408;2024-02-14T05:07:59;101130.75;;;11.80;70.00
21290;BME280;10804;48.988;2.408;2024-02-14T05:10:26;101138.53;;;11.81;70.20
21290;BME280;10804;48.988;2.408;2024-02-14T05:12:55;101135.00;;;11.82;70.15
21290;BME280;10804;48.988;2.408;2024-02-14T05:15:23;101132.44;;;11.81;69.99
21290;BME280;10804;48.988;2.408;2024-02-14T05:17:51;101135.91;;;11.81;70.15
21290;BME280;10804;48.988;2.408;2024-02-14T05:20:18;101148.97;;;11.81;70.01
21290;BME280;10804;48.988;2.408;2024-02-14T05:22:46;101148.03;;;11.84;70.00
21290;BME280;10804;48.988;2.408;2024-02-14T05:25:14;101145.47;;;11.82;70.17
21290;BME280;10804;48.988;2.408;2024-02-14T05:27:52;101143.69;;;11.84;70.12
21290;BME280;10804;48.988;2.408;2024-02-14T05:30:21;101142.81;;;11.84;70.12
21290;BME280;10804;48.988;2.408;2024-02-14T05:32:57;101124.53;;;11.84;70.13
21290;BME280;10804;48.988;2.408;2024-02-14T05:35:25;101131.44;;;11.86;70.12
21290;BME280;10804;48.988;2.408;2024-02-14T05:37:52;101127.94;;;11.86;69.98
21290;BME280;10804;48.988;2.408;2024-02-14T05:40:20;101130.56;;;11.86;70.14
21290;BME280;10804;48.988;2.408;2024-02-14T05:42:47;101125.34;;;11.86;70.04
21290;BME280;10804;48.988;2.408;2024-02-14T05:45:15;101133.16;;;11.87;70.03
21290;BME280;10804;48.988;2.408;2024-02-14T05:47:44;101128.78;;;11.88;70.08
21290;BME280;10804;48.988;2.408;2024-02-14T05:50:11;101120.09;;;11.87;70.17
21290;BME280;10804;48.988;2.408;2024-02-14T05:52:39;101124.41;;;11.88;69.98
21290;BME280;10804;48.988;2.408;2024-02-14T05:55:06;101125.31;;;11.87;70.15
21290;BME280;10804;48.988;2.408;2024-02-14T05:57:46;101125.28;;;11.89;70.13
21290;BME280;10804;48.988;2.408;2024-02-14T06:00:15;101120.91;;;11.89;70.26
21290;BME280;10804;48.988;2.408;2024-02-14T06:02:43;101125.22;;;11.90;70.00
21290;BME280;10804;48.988;2.408;2024-02-14T06:05:11;101133.13;;;11.89;70.08
21290;BME280;10804;48.988;2.408;2024-02-14T06:07:38;101138.28;;;11.90;70.25
21290;BME280;10804;48.988;2.408;2024-02-14T06:10:06;101144.38;;;11.91;70.08
21290;BME280;10804;48.988;2.408;2024-02-14T06:12:34;101140.03;;;11.91;70.15
21290;BME280;10804;48.988;2.408;2024-02-14T06:15:02;101141.78;;;11.91;70.11
21290;BME280;10804;48.988;2.408;2024-02-14T06:17:36;101153.09;;;11.91;70.23
21290;BME280;10804;48.988;2.408;2024-02-14T06:20:07;101144.41;;;11.89;69.99
21290;BME280;10804;48.988;2.408;2024-02-14T06:22:36;101140.88;;;11.92;70.22
21290;BME280;10804;48.988;2.408;2024-02-14T06:25:04;101139.13;;;11.92;69.96
21290;BME280;10804;48.988;2.408;2024-02-14T06:27:35;101146.06;;;11.93;70.16
21290;BME280;10804;48.988;2.408;2024-02-14T06:30:03;101150.41;;;11.94;70.12
21290;BME280;10804;48.988;2.408;2024-02-14T06:32:31;101145.19;;;11.94;70.14
21290;BME280;10804;48.988;2.408;2024-02-14T06:34:59;101151.28;;;11.95;69.98
21290;BME280;10804;48.988;2.408;2024-02-14T06:37:27;101156.50;;;11.95;70.01
21290;BME280;10804;48.988;2.408;2024-02-14T06:39:55;101178.25;;;11.95;70.24
21290;BME280;10804;48.988;2.408;2024-02-14T06:42:22;101167.78;;;11.95;70.00
21290;BME280;10804;48.988;2.408;2024-02-14T06:44:49;101164.28;;;11.96;70.03
21290;BME280;10804;48.988;2.408;2024-02-14T06:47:16;101162.56;;;11.95;70.27
21290;BME280;10804;48.988;2.408;2024-02-14T06:49:44;101173.84;;;11.97;70.07
21290;BME280;10804;48.988;2.408;2024-02-14T06:52:11;101169.47;;;11.98;69.94
21290;BME280;10804;48.988;2.408;2024-02-14T06:54:40;101182.56;;;11.98;70.18
21290;BME280;10804;48.988;2.408;2024-02-14T06:57:13;101177.31;;;11.98;69.94
21290;BME280;10804;48.988;2.408;2024-02-14T06:59:41;101183.44;;;11.98;70.17
21290;BME280;10804;48.988;2.408;2024-02-14T07:02:09;101188.66;;;11.98;70.10
21290;BME280;10804;48.988;2.408;2024-02-14T07:04:36;101194.72;;;11.99;70.18
21290;BME280;10804;48.988;2.408;2024-02-14T07:07:03;101200.81;;;11.99;69.99
21290;BME280;10804;48.988;2.408;2024-02-14T07:09:31;101190.38;;;11.99;70.00
21290;BME280;10804;48.988;2.408;2024-02-14T07:12:03;101186.88;;;11.99;70.13
21290;BME280;10804;48.988;2.408;2024-02-14T07:14:31;101191.22;;;12.00;70.19
21290;BME280;10804;48.988;2.408;2024-02-14T07:16:58;101192.97;;;11.99;70.00
21290;BME280;10804;48.988;2.408;2024-02-14T07:19:25;101198.16;;;12.01;70.25
21290;BME280;10804;48.988;2.408;2024-02-14T07:21:53;101192.91;;;12.01;69.96
21290;BME280;10804;48.988;2.408;2024-02-14T07:24:20;101196.41;;;12.01;69.87
21290;BME280;10804;48.988;2.408;2024-02-14T07:26:47;101195.50;;;12.02;70.33
21290;BME280;10804;48.988;2.408;2024-02-14T07:29:16;101200.75;;;12.02;70.14
21290;BME280;10804;48.988;2.408;2024-02-14T07:31:44;101205.09;;;12.02;70.26
21290;BME280;10804;48.988;2.408;2024-02-14T07:34:11;101220.75;;;12.03;70.20
21290;BME280;10804;48.988;2.408;2024-02-14T07:36:38;101217.22;;;12.04;70.06
21290;BME280;10804;48.988;2.408;2024-02-14T07:39:07;101224.25;;;12.04;70.07
21290;BME280;10804;48.988;2.408;2024-02-14T07:41:34;101229.47;;;12.04;70.13
21290;BME280;10804;48.988;2.408;2024-02-14T07:44:02;101235.53;;;12.04;70.18
21290;BME280;10804;48.988;2.408;2024-02-14T07:46:31;101220.72;;;12.05;70.13
21290;BME280;10804;48.988;2.408;2024-02-14T07:48:59;101221.63;;;12.04;70.06
21290;BME280;10804;48.988;2.408;2024-02-14T07:51:26;101225.94;;;12.06;70.01
21290;BME280;10804;48.988;2.408;2024-02-14T07:53:54;101220.69;;;12.06;69.92
21290;BME280;10804;48.988;2.408;2024-02-14T07:56:22;101215.47;;;12.06;70.10
21290;BME280;10804;48.988;2.408;2024-02-14T07:58:49;101221.53;;;12.07;70.02
21290;BME280;10804;48.988;2.408;2024-02-14T08:01:16;101218.03;;;12.08;70.03
21290;BME280;10804;48.988;2.408;2024-02-14T08:03:45;101213.66;;;12.08;70.27
21290;BME280;10804;48.988;2.408;2024-02-14T08:06:13;101213.66;;;12.08;69.79
21290;BME280;10804;48.988;2.408;2024-02-14T08:08:40;101218.00;;;12.09;70.03
21290;BME280;10804;48.988;2.408;2024-02-14T08:11:07;101223.22;;;12.09;70.02
21290;BME280;10804;48.988;2.408;2024-02-14T08:13:35;101240.63;;;12.10;70.08
21290;BME280;10804;48.988;2.408;2024-02-14T08:16:03;101231.88;;;12.11;69.92
21290;BME280;10804;48.988;2.408;2024-02-14T08:18:30;101237.13;;;12.11;70.18
21290;BME280;10804;48.988;2.408;2024-02-14T08:20:59;101230.97;;;12.12;70.04
21290;BME280;10804;48.988;2.408;2024-02-14T08:23:26;101224.00;;;12.13;69.98
21290;BME280;10804;48.988;2.408;2024-02-14T08:25:54;101230.97;;;12.14;70.02
21290;BME280;10804;48.988;2.408;2024-02-14T08:28:21;101227.53;;;12.12;70.10
21290;BME280;10804;48.988;2.408;2024-02-14T08:30:49;101244.00;;;12.15;69.92
21290;BME280;10804;48.988;2.408;2024-02-14T08:33:17;101242.19;;;12.17;70.08
21290;BME280;10804;48.988;2.408;2024-02-14T08:35:44;101244.81;;;12.17;70.25
21290;BME280;10804;48.988;2.408;2024-02-14T08:38:14;101243.06;;;12.18;70.26
21290;BME280;10804;48.988;2.408;2024-02-14T08:40:41;101247.34;;;12.20;69.93
21290;BME280;10804;48.988;2.408;2024-02-14T08:43:09;101243.91;;;12.18;69.96
21290;BME280;10804;48.988;2.408;2024-02-14T08:45:37;101243.00;;;12.21;70.03
21290;BME280;10804;48.988;2.408;2024-02-14T08:48:06;101244.72;;;12.22;69.95
21290;BME280;10804;48.988;2.408;2024-02-14T08:50:33;101242.97;;;12.22;70.05
21290;BME280;10804;48.988;2.408;2024-02-14T08:53:01;101249.00;;;12.24;70.06
21290;BME280;10804;48.988;2.408;2024-02-14T08:55:30;101245.50;;;12.25;70.11
21290;BME280;10804;48.988;2.408;2024-02-14T08:57:59;101237.66;;;12.25;70.08
21290;BME280;10804;48.988;2.408;2024-02-14T09:00:26;101245.41;;;12.28;70.14
21290;BME280;10804;48.988;2.408;2024-02-14T09:02:53;101246.38;;;12.26;69.89
21290;BME280;10804;48.988;2.408;2024-02-14T09:05:21;101249.78;;;12.29;69.73
21290;BME280;10804;48.988;2.408;2024-02-14T09:07:48;101253.22;;;12.30;69.97
21290;BME280;10804;48.988;2.408;2024-02-14T09:10:16;101257.53;;;12.32;69.92
21290;BME280;10804;48.988;2.408;2024-02-14T09:12:45;101257.53;;;12.32;69.73
21290;BME280;10804;48.988;2.408;2024-02-14T09:15:12;101260.13;;;12.34;69.77
21290;BME280;10804;48.988;2.408;2024-02-14T09:17:40;101262.66;;;12.35;69.96
21290;BME280;10804;48.988;2.408;2024-02-14T09:20:08;101267.91;;;12.35;69.86
21290;BME280;10804;48.988;2.408;2024-02-14T09:22:36;101264.41;;;12.36;69.93
21290;BME280;10804;48.988;2.408;2024-02-14T09:25:04;101262.63;;;12.38;70.03
21290;BME280;10804;48.988;2.408;2024-02-14T09:27:31;101269.56;;;12.39;69.95
21290;BME280;10804;48.988;2.408;2024-02-14T09:30:00;101269.53;;;12.41;69.99
21290;BME280;10804;48.988;2.408;2024-02-14T09:32:29;101259.91;;;12.41;69.70
21290;BME280;10804;48.988;2.408;2024-02-14T09:34:57;101257.25;;;12.43;69.94
21290;BME280;10804;48.988;2.408;2024-02-14T09:37:25;101254.66;;;12.43;69.93
21290;BME280;10804;48.988;2.408;2024-02-14T09:39:53;101252.00;;;12.44;69.60
21290;BME280;10804;48.988;2.408;2024-02-14T09:42:28;101230.25;;;12.42;69.60
21290;BME280;10804;48.988;2.408;2024-02-14T09:44:58;101237.13;;;12.46;69.88
21290;BME280;10804;48.988;2.408;2024-02-14T09:47:29;101245.81;;;12.47;69.99
21290;BME280;10804;48.988;2.408;2024-02-14T09:49:59;101244.03;;;12.49;69.91
21290;BME280;10804;48.988;2.408;2024-02-14T09:52:31;101248.38;;;12.50;69.73
21290;BME280;10804;48.988;2.408;2024-02-14T09:55:00;101242.25;;;12.51;69.55
21290;BME280;10804;48.988;2.408;2024-02-14T09:57:29;101242.22;;;12.52;70.01
21290;BME280;10804;48.988;2.408;2024-02-14T09:59:56;101234.34;;;12.52;69.77
21290;BME280;10804;48.988;2.408;2024-02-14T10:02:26;101237.78;;;12.54;69.91
21290;BME280;10804;48.988;2.408;2024-02-14T10:04:54;101236.88;;;12.55;69.54
21290;BME280;10804;48.988;2.408;2024-02-14T10:07:21;101235.16;;;12.56;69.55
21290;BME280;10804;48.988;2.408;2024-02-14T10:09:49;101242.03;;;12.58;69.79
21290;BME280;10804;48.988;2.408;2024-02-14T10:12:16;101241.16;;;12.59;69.69
21290;BME280;10804;48.988;2.408;2024-02-14T10:14:44;101242.00;;;12.60;69.84
21290;BME280;10804;48.988;2.408;2024-02-14T10:17:17;101245.44;;;12.62;69.66
21290;BME280;10804;48.988;2.408;2024-02-14T10:19:56;101248.00;;;12.63;69.64
21290;BME280;10804;48.988;2.408;2024-02-14T10:22:24;101247.97;;;12.65;69.57
21290;BME280;10804;48.988;2.408;2024-02-14T10:24:51;101239.19;;;12.67;69.86
21290;BME280;10804;48.988;2.408;2024-02-14T10:27:20;101254.84;;;12.69;69.52
21290;BME280;10804;48.988;2.408;2024-02-14T10:29:48;101248.69;;;12.70;69.41
21290;BME280;10804;48.988;2.408;2024-02-14T10:32:15;101253.94;;;12.70;69.67
21290;BME280;10804;48.988;2.408;2024-02-14T10:34:43;101263.47;;;12.72;69.50
21290;BME280;10804;48.988;2.408;2024-02-14T10:37:15;101265.19;;;12.73;69.61
21290;BME280;10804;48.988;2.408;2024-02-14T10:39:46;101269.50;;;12.76;69.73
21290;BME280;10804;48.988;2.408;2024-02-14T10:42:15;101278.22;;;12.76;69.84
21290;BME280;10804;48.988;2.408;2024-02-14T10:44:42;101272.06;;;12.77;69.55
21290;BME280;10804;48.988;2.408;2024-02-14T10:47:14;101281.63;;;12.78;69.38
21290;BME280;10804;48.988;2.408;2024-02-14T10:49:45;101277.22;;;12.80;69.76
21290;BME280;10804;48.988;2.408;2024-02-14T10:52:16;101282.44;;;12.80;69.51
21290;BME280;10804;48.988;2.408;2024-02-14T10:54:50;101283.28;;;12.82;69.44
21290;BME280;10804;48.988;2.408;2024-02-14T10:57:19;101278.88;;;12.84;69.55
21290;BME280;10804;48.988;2.408;2024-02-14T10:59:48;101285.81;;;12.85;69.42
21290;BME280;10804;48.988;2.408;2024-02-14T11:02:16;101281.41;;;12.87;69.39
21290;BME280;10804;48.988;2.408;2024-02-14T11:04:45;101286.59;;;12.89;69.63
21290;BME280;10804;48.988;2.408;2024-02-14T11:07:12;101280.50;;;12.88;69.65
21290;BME280;10804;48.988;2.408;2024-02-14T11:09:42;101266.50;;;12.89;69.53
21290;BME280;10804;48.988;2.408;2024-02-14T11:12:10;101271.69;;;12.92;69.45
21290;BME280;10804;48.988;2.408;2024-02-14T11:14:38;101276.00;;;12.93;69.49
21290;BME280;10804;48.988;2.408;2024-02-14T11:17:10;101274.22;;;12.95;69.52
21290;BME280;10804;48.988;2.408;2024-02-14T11:19:39;101269.91;;;12.94;69.35
21290;BME280;10804;48.988;2.408;2024-02-14T11:22:10;101284.66;;;12.97;69.50
21290;BME280;10804;48.988;2.408;2024-02-14T11:24:39;101274.19;;;12.97;69.66
21290;BME280;10804;48.988;2.408;2024-02-14T11:27:11;101268.94;;;12.98;69.39
21290;BME280;10804;48.988;2.408;2024-02-14T11:29:39;101260.19;;;12.99;69.65
21290;BME280;10804;48.988;2.408;2024-02-14T11:32:07;101254.03;;;13.00;69.52
21290;BME280;10804;48.988;2.408;2024-02-14T11:34:36;101256.63;;;13.02;69.37
21290;BME280;10804;48.988;2.408;2024-02-14T11:37:03;101258.34;;;13.03;69.28
21290;BME280;10804;48.988;2.408;2024-02-14T11:39:33;101254.81;;;13.04;69.77
21290;BME280;10804;48.988;2.408;2024-02-14T11:42:00;101259.13;;;13.05;69.16
21290;BME280;10804;48.988;2.408;2024-02-14T11:44:31;101267.88;;;13.05;69.64
21290;BME280;10804;48.988;2.408;2024-02-14T11:46:58;101259.09;;;13.06;69.70
21290;BME280;10804;48.988;2.408;2024-02-14T11:49:25;101261.66;;;13.08;69.35
21290;BME280;10804;48.988;2.408;2024-02-14T11:51:53;101252.91;;;13.09;69.01
21290;BME280;10804;48.988;2.408;2024-02-14T11:54:20;101259.00;;;13.09;69.25
21290;BME280;10804;48.988;2.408;2024-02-14T11:56:48;101265.94;;;13.12;69.56
21290;BME280;10804;48.988;2.408;2024-02-14T11:59:15;101255.44;;;13.13;69.23
21290;BME280;10804;48.988;2.408;2024-02-14T12:01:47;101256.25;;;13.14;69.46
21290;BME280;10804;48.988;2.408;2024-02-14T12:04:14;101257.06;;;13.16;69.42
21290;BME280;10804;48.988;2.408;2024-02-14T12:06:42;101252.72;;;13.16;69.32
21290;BME280;10804;48.988;2.408;2024-02-14T12:09:09;101245.66;;;13.18;69.45
21290;BME280;10804;48.988;2.408;2024-02-14T12:11:46;101246.53;;;13.19;69.39
21290;BME280;10804;48.988;2.408;2024-02-14T12:14:13;101241.22;;;13.20;69.66
21290;BME280;10804;48.988;2.408;2024-02-14T12:16:44;101256.00;;;13.23;69.58
21290;BME280;10804;48.988;2.408;2024-02-14T12:19:15;101245.53;;;13.23;69.31
21290;BME280;10804;48.988;2.408;2024-02-14T12:21:43;101241.16;;;13.23;69.42
21290;BME280;10804;48.988;2.408;2024-02-14T12:24:11;101242.09;;;13.21;69.46
21290;BME280;10804;48.988;2.408;2024-02-14T12:26:41;101248.00;;;13.27;69.22
21290;BME280;10804;48.988;2.408;2024-02-14T12:29:11;101244.53;;;13.28;69.46
21290;BME280;10804;48.988;2.408;2024-02-14T12:31:39;101241.03;;;13.28;69.68
21290;BME280;10804;48.988;2.408;2024-02-14T12:34:06;101249.69;;;13.30;69.49
21290;BME280;10804;48.988;2.408;2024-02-14T12:36:35;101247.94;;;13.30;69.38
21290;BME280;10804;48.988;2.408;2024-02-14T12:39:03;101255.78;;;13.32;69.27
21290;BME280;10804;48.988;2.408;2024-02-14T12:41:31;101254.88;;;13.33;69.47
21290;BME280;10804;48.988;2.408;2024-02-14T12:44:01;101243.47;;;13.34;69.45
21290;BME280;10804;48.988;2.408;2024-02-14T12:46:28;101243.41;;;13.35;69.29
21290;BME280;10804;48.988;2.408;2024-02-14T12:48:56;101240.75;;;13.37;69.61
21290;BME280;10804;48.988;2.408;2024-02-14T12:51:24;101251.19;;;13.38;69.34
21290;BME280;10804;48.988;2.408;2024-02-14T12:53:55;101235.44;;;13.40;69.43
21290;BME280;10804;48.988;2.408;2024-02-14T12:56:23;101241.53;;;13.40;69.41
21290;BME280;10804;48.988;2.408;2024-02-14T12:58:50;101249.34;;;13.42;69.21
21290;BME280;10804;48.988;2.408;2024-02-14T13:01:18;101243.25;;;13.41;69.42